METAR Data
IDs: Format: Raw Decoded Include TAF

Data at: 2022 UTC 18 Apr 2021

KSGJ 182010Z 25003KT 10SM BKN010 BKN080 24/19 A2987 RMK AO2 $
KSGJ 182003Z 28004KT 10SM BKN024 BKN080 24/18 A2987 RMK AO2 $
KSGJ 181956Z 29008KT 10SM BKN010 BKN070 24/19 A2987 RMK AO2 SLP115 T02440189 $
KSGJ 181856Z 27006KT 10SM BKN010 24/18 A2989 RMK AO2 SLP122 T02390183 $
KSGJ 181805Z 20006KT 10SM BKN010 22/20 A2991 RMK AO2 $
KSGJ 181756Z 21007KT 10SM SCT008 BKN110 22/20 A2991 RMK AO2 SLP128 60047 T02170200 10217 20189 56029 $
KSGJ 181713Z 21005KT 10SM FEW008 BKN075 BKN120 20/19 A2992 RMK AO2 $
KSGJ 181656Z 00000KT 10SM BKN080 BKN120 20/19 A2992 RMK AO2 RAE11 SLP129 P0000 T02000189 $
KSGJ 181643Z 21005KT 10SM OVC085 19/19 A2993 RMK AO2 RAE11 P0000 $
KSGJ 181603Z 20006KT 3SM -RA BR FEW005 BKN009 BKN080 19/19 A2994 RMK AO2 P0000 $
KSGJ 181556Z 19006KT 2SM -RA BR FEW005 BKN009 BKN080 19/19 A2994 RMK AO2 SLP139 P0005 T01940189 $
KSGJ 181532Z 19007KT 2SM -RA BR FEW005 BKN009 BKN055 19/19 A2997 RMK AO2 P0005 $
KSGJ 181503Z 21006KT 6SM -RA BR SCT007 BKN060 OVC070 19/19 A3001 RMK AO2 LTG DSNT SE P0002 $
KSGJ 181456Z 20006KT 2SM -RA BR FEW005 BKN009 BKN055 19/19 A3000 RMK AO2 LTG DSNT SE SLP157 P0015 60042 T01890189 51021 $
KSGJ 181412Z 28003KT 2SM RA BR FEW003 BKN008 19/18 A2998 RMK AO2 LTG DSNT S AND SW P0007 $
KSGJ 181403Z 30004KT 5SM RA BR SCT050 BKN065 OVC090 19/19 A2997 RMK AO2 LTG DSNT SW P0003 $
KSGJ 181356Z 00000KT 2SM -RA BR FEW003 BKN008 19/19 A2997 RMK AO2 LTG DSNT SW SLP146 P0017 T01890189 $
KSGJ 181256Z 31010KT 4SM RA BR FEW003 BKN006 BKN070 19/19 A2997 RMK AO2 LTG DSNT W PRESRR SLP148 P0010 T01890189 $
KSGJ 181248Z 28006KT 4SM -RA BR FEW003 BKN006 BKN070 19/19 A2996 RMK AO2 LTG DSNT W PRESRR P0005 $
KSGJ 181200Z 19005KT 4SM -RA BR BKN003 BKN065 OVC090 19/19 A2994 RMK AO2 P0000 $
KSGJ 181156Z 18006KT 1SM -RA BR FEW004 BKN065 OVC090 19/19 A2994 RMK AO2 RAB26 SLP136 P0003 60003 70018 T01890189 10189 20183 50017 $
KSGJ 181148Z 17006KT 1SM -RA BR FEW003 BKN065 OVC090 19/19 A2994 RMK AO2 RAB26 P0003 $
KSGJ 181139Z 18005KT 1SM -RA BR SCT003 BKN018 OVC065 19/19 A2994 RMK AO2 RAB26 P0002 $
KSGJ 181107Z 00000KT 1SM BR OVC003 19/19 A2994 RMK AO2 $
KSGJ 181056Z 26003KT 7SM OVC003 19/19 A2994 RMK AO2 SLP137 T01890189 $
KSGJ 181003Z AUTO 26003KT 10SM BKN003 OVC075 19/18 A2991 RMK AO2 $
KSGJ 180956Z AUTO 22003KT 10SM SCT003 BKN070 OVC080 19/18 A2990 RMK AO2 SLP124 T01890183 $
KSGJ 180942Z AUTO 22003KT 10SM SCT003 OVC075 19/18 A2989 RMK AO2 $
KSGJ 180922Z AUTO 23003KT 10SM BKN003 BKN070 19/18 A2989 RMK AO2 $
KSGJ 180913Z AUTO 25003KT 10SM SCT003 BKN070 19/18 A2990 RMK AO2 $
KSGJ 180856Z AUTO 23003KT 10SM SCT070 19/18 A2988 RMK AO2 SLP119 60000 T01890183 58002 $
KSGJ 180756Z AUTO 00000KT 10SM SCT080 19/18 A2987 RMK AO2 RAB09E30 PRESFR SLP114 P0000 T01890183 $
KSGJ 180656Z AUTO 27006KT 10SM OVC080 19/18 A2991 RMK AO2 SLP128 T01890183 $
KSGJ 180556Z AUTO 19004KT 10SM OVC080 19/19 A2989 RMK AO2 SLP121 60003 T01890189 10206 20189 58002 $
KSGJ 180456Z AUTO 00000KT 10SM OVC095 19/19 A2991 RMK AO2 SLP127 T01890189 $
KSGJ 180356Z AUTO 18005KT 10SM FEW023 OVC090 19/19 A2993 RMK AO2 RAB14E36 SLP134 P0001 T01890189 402220167 $
KSGJ 180256Z AUTO 18004KT 10SM OVC070 19/18 A2990 RMK AO2 LTG DSNT S TSE08RAB07E53 SLP122 P0002 60002 T01940183 50004 $
KSGJ 180214Z AUTO VRB05KT 10SM -RA FEW028 SCT033 OVC047 20/18 A2994 RMK AO2 LTG DSNT E-S TSE08RAB07 P0001 $
KSGJ 180156Z AUTO 18005KT 10SM VCTS OVC043 21/18 A2991 RMK AO2 LTG DSNT ALQDS TSB53 PRESRR SLP128 T02060178 $
KSGJ 180056Z AUTO 04005KT 10SM OVC031 20/18 A2989 RMK AO2 LTG DSNT SE-SW RAB38E55 SLP119 P0000 T02000178 $
KSGJ 180051Z AUTO 04006KT 10SM -RA FEW024 OVC031 20/18 A2988 RMK AO2 LTG DSNT SE-SW RAB38 P0000 $
KSGJ 180024Z 02006KT 10SM BKN029 BKN100 OVC120 20/17 A2990 RMK AO2 LTG DSNT ALQDS $
KSGJ 172356Z 04007KT 10SM FEW120 20/17 A2987 RMK AO2 LTG DSNT S AND SW SLP114 T02000172 10222 20200 51013 $
KSGJ 172256Z 06005KT 10SM BKN043 21/17 A2987 RMK AO2 SLP113 T02060172 $
KSGJ 172156Z 05006KT 10SM SCT035 21/17 A2985 RMK AO2 SLP107 T02110172 $
KSGJ 172056Z 08008KT 10SM FEW075 22/17 A2983 RMK AO2 SLP101 T02170172 58017 $
KSGJ 171956Z 08007KT 10SM SCT060 22/17 A2985 RMK AO2 SLP108 T02170167 $
KSGJ 171856Z 09006KT 10SM FEW060 21/16 A2988 RMK AO2 SLP116 T02110161 $
KSGJ 171805Z 05006KT 10SM SCT017 BKN065 22/17 A2988 RMK AO2 $
KSGJ 171756Z 05009KT 10SM OVC017 22/16 A2988 RMK AO2 SLP119 60012 T02170161 10217 20178 57012 $
KSGJ 171656Z 02007KT 10SM OVC015 21/17 A2989 RMK AO2 SLP119 T02110172 $
KSGJ 171556Z 05005KT 10SM OVC015 20/17 A2992 RMK AO2 RAE12 SLP129 P0000 T02000167 $
KSGJ 171530Z 06003KT 10SM BKN015 BKN110 19/17 A2992 RMK AO2 RAE12 P0000 $
KSGJ 171522Z 07005KT 10SM SCT015 BKN050 OVC110 19/17 A2991 RMK AO2 RAE12 P0000 $
KSGJ 171514Z 07005KT 10SM BKN015 BKN070 OVC110 19/17 A2991 RMK AO2 RAE12 P0000 $
KSGJ 171506Z VRB03KT 10SM -RA SCT015 BKN031 OVC070 19/17 A2991 RMK AO2 P0000 $
KSGJ 171456Z 00000KT 6SM -RA BR BKN015 BKN029 OVC070 18/17 A2992 RMK AO2 RAB27 SLP130 P0011 60012 T01830167 53010 $
KSGJ 171445Z 00000KT 2SM RA BR SCT015 BKN029 OVC080 18/17 A2992 RMK AO2 RAB27 CIG 023V035 P0009 $
KSGJ 171403Z 16008KT 10SM FEW018 OVC080 19/16 A2990 RMK AO2 $
KSGJ 171356Z 16009KT 6SM HZ BKN012 OVC018 19/16 A2990 RMK AO2 RAB28E46 SLP123 P0000 T01890161 $
KSGJ 171340Z 14007KT 6SM -RA BR BKN012 OVC018 18/16 A2991 RMK AO2 RAB28 P0000 $
KSGJ 171306Z 14005KT 10SM BKN018 18/17 A2991 RMK AO2 $
KSGJ 171256Z 16005KT 5SM BR FEW016 BKN050 18/17 A2990 RMK AO2 RAE31 SLP124 P0001 T01830167 $
KSGJ 171229Z 10006KT 10SM -RA FEW016 SCT110 18/16 A2988 RMK AO2 P0001 $
KSGJ 171203Z 09008KT 6SM -RA BR BKN018 OVC070 18/16 A2986 RMK AO2 PRESFR P0000 $
KSGJ 171156Z 11004KT 4SM -RA BR FEW005 BKN010 OVC018 18/16 A2989 RMK AO2 RAB14 SLP120 P0002 60014 70038 T01780156 10178 20172 53008 $
KSGJ 171056Z 05007KT 10SM FEW005 BKN010 OVC018 17/15 A2986 RMK AO2 RAE35 SLP110 P0000 T01720150 $
KSGJ 171052Z 03006KT 10SM FEW005 BKN010 OVC018 17/16 A2986 RMK AO2 RAE35 P0000 $
KSGJ 171041Z AUTO 04007KT 10SM SCT008 OVC016 17/16 A2986 RMK AO2 RAE35 P0000 $
KSGJ 170956Z AUTO 01006KT 10SM -RA BKN008 OVC012 18/17 A2986 RMK AO2 RAB15 CIG 006V010 SLP112 P0006 T01780167 $
KSGJ 170923Z AUTO 03006KT 3SM -RA BR OVC010 18/17 A2985 RMK AO2 LTG DSNT S RAB15 CIG 007V012 P0000 $
KSGJ 170912Z AUTO 04007KT 2SM BR BKN008 OVC015 18/17 A2985 RMK AO2 VIS 1 3/4V5 CIG 007V011 $
KSGJ 170856Z AUTO 03009KT 3SM BR BKN008 OVC017 18/17 A2985 RMK AO2 SLP106 60006 T01780167 56002 $
KSGJ 170849Z AUTO 04005KT 2 1/2SM BR BKN008 OVC017 18/17 A2985 RMK AO2 VIS 2V4 $
KSGJ 170841Z AUTO 06006KT 7SM SCT008 OVC017 18/17 A2984 RMK AO2 $